Time;durP1;ratioP1;P1;durP2;ratioP2;P2;SDS_P1;SDS_P2;PMS_P1;PMS_P2;Temp;Humidity;BMP_temperature;BMP_pressure;BME280_temperature;BME280_humidity;BME280_pressure;Samples;Min_cycle;Max_cycle;Signal;HPM_P1;HPM_P2
2023/01/15 00:00:57;;;;;;;;;;;26.10;99.90;;;;;;5087682;28;20409;-78
2023/01/15 00:03:24;;;;;;;;;;;26.10;99.90;;;;;;5087629;28;19919;-81
2023/01/15 00:05:53;;;;;;;;;;;26.20;99.90;;;;;;5087731;28;19980;-81
2023/01/15 00:08:20;;;;;;;;;;;26.20;99.90;;;;;;5087084;28;19919;-75
2023/01/15 00:10:47;;;;;;;;;;;26.40;99.90;;;;;;5087682;28;20418;-74
2023/01/15 00:13:13;;;;;;;;;;;26.40;99.90;;;;;;5087406;28;20377;-78
2023/01/15 00:15:40;;;;;;;;;;;26.30;99.90;;;;;;5087184;28;20348;-79
2023/01/15 00:18:06;;;;;;;;;;;26.40;99.90;;;;;;5088849;28;20266;-81
2023/01/15 00:20:33;;;;;;;;;;;26.30;99.90;;;;;;5096408;28;20002;-81
2023/01/15 00:23:00;;;;;;;;;;;26.40;99.90;;;;;;5096069;28;19916;-78
2023/01/15 00:28:13;;;;;;;;;;;26.40;99.90;;;;;;5096253;28;20372;-81
2023/01/15 00:30:41;;;;;;;;;;;26.50;99.90;;;;;;5095446;28;19908;-80
2023/01/15 00:33:08;;;;;;;;;;;26.60;99.90;;;;;;5095660;28;19955;-75
2023/01/15 00:35:35;;;;;;;;;;;26.70;99.90;;;;;;5095693;28;20324;-81
2023/01/15 00:38:01;;;;;;;;;;;26.80;99.90;;;;;;5095784;28;19983;-81
2023/01/15 00:40:28;;;;;;;;;;;26.90;99.90;;;;;;5095452;28;19954;-82
2023/01/15 00:42:55;;;;;;;;;;;26.90;99.90;;;;;;5095715;28;19909;-67
2023/01/15 00:45:22;;;;;;;;;;;26.80;99.90;;;;;;5095404;28;19912;-80
2023/01/15 00:47:49;;;;;;;;;;;26.80;99.90;;;;;;5095477;28;20504;-73
2023/01/15 00:50:16;;;;;;;;;;;26.80;99.90;;;;;;5095107;28;19915;-74
2023/01/15 00:52:42;;;;;;;;;;;26.90;99.90;;;;;;5095241;28;19933;-73
2023/01/15 00:55:09;;;;;;;;;;;26.90;99.90;;;;;;5095479;28;19961;-79
2023/01/15 00:57:36;;;;;;;;;;;26.80;99.90;;;;;;5095134;28;20385;-78
2023/01/15 01:00:03;;;;;;;;;;;26.60;99.90;;;;;;5094902;28;20003;-68
2023/01/15 01:02:30;;;;;;;;;;;26.80;99.90;;;;;;5095236;28;19909;-65
2023/01/15 01:04:57;;;;;;;;;;;26.90;99.90;;;;;;5094974;28;19908;-68
2023/01/15 01:07:23;;;;;;;;;;;27.00;99.90;;;;;;5094762;28;19956;-71
2023/01/15 01:09:50;;;;;;;;;;;27.30;99.90;;;;;;5094756;28;19912;-68
2023/01/15 01:12:16;;;;;;;;;;;27.70;99.90;;;;;;5094965;28;19909;-65
2023/01/15 01:14:43;;;;;;;;;;;28.30;99.90;;;;;;5094959;28;19908;-65
2023/01/15 01:17:11;;;;;;;;;;;28.80;99.90;;;;;;5094915;28;19908;-65
2023/01/15 01:19:38;;;;;;;;;;;28.90;99.90;;;;;;5094480;28;20011;-67
2023/01/15 01:22:04;;;;;;;;;;;29.40;99.90;;;;;;5094908;28;20309;-67
2023/01/15 01:24:31;;;;;;;;;;;29.80;99.90;;;;;;5095006;28;19915;-70
2023/01/15 01:26:57;;;;;;;;;;;29.90;99.90;;;;;;5094993;28;19915;-66
2023/01/15 01:29:24;;;;;;;;;;;30.00;99.90;;;;;;5094179;28;19931;-66
2023/01/15 01:31:51;;;;;;;;;;;30.20;99.90;;;;;;5094984;28;19935;-73
2023/01/15 01:34:17;;;;;;;;;;;30.20;99.90;;;;;;5094563;28;20062;-66
2023/01/15 01:36:44;;;;;;;;;;;30.50;99.90;;;;;;5094586;28;19908;-66
2023/01/15 01:39:15;;;;;;;;;;;30.50;99.90;;;;;;5094335;28;19957;-70
2023/01/15 01:41:43;;;;;;;;;;;30.60;99.90;;;;;;5094451;28;20419;-71
2023/01/15 01:44:27;;;;;;;;;;;30.40;99.90;;;;;;5093640;28;19999;-64
2023/01/15 01:46:54;;;;;;;;;;;30.40;99.90;;;;;;5094521;28;19915;-69
2023/01/15 01:49:21;;;;;;;;;;;30.40;99.90;;;;;;5093775;28;19931;-69
2023/01/15 01:52:07;;;;;;;;;;;30.80;99.90;;;;;;5094449;28;19909;-68
2023/01/15 01:54:35;;;;;;;;;;;30.90;99.90;;;;;;5094256;28;19916;-69
2023/01/15 01:57:02;;;;;;;;;;;30.50;99.90;;;;;;5094530;28;19915;-70
2023/01/15 01:59:29;;;;;;;;;;;30.30;99.90;;;;;;5093474;28;20007;-74
2023/01/15 02:01:56;;;;;;;;;;;29.70;99.90;;;;;;5094128;28;20274;-66
2023/01/15 02:04:24;;;;;;;;;;;28.90;99.90;;;;;;5093833;28;19908;-66
2023/01/15 02:06:51;;;;;;;;;;;28.50;99.90;;;;;;5094072;28;19908;-66
2023/01/15 02:09:17;;;;;;;;;;;28.10;99.90;;;;;;5093316;28;19908;-74
2023/01/15 02:11:44;;;;;;;;;;;27.70;99.90;;;;;;5093991;28;19930;-80
2023/01/15 02:14:16;;;;;;;;;;;27.70;99.90;;;;;;5093892;28;19935;-70
2023/01/15 02:16:48;;;;;;;;;;;27.80;99.90;;;;;;5092460;28;19918;-71
2023/01/15 02:19:18;;;;;;;;;;;27.80;99.90;;;;;;5092789;28;19916;-69
2023/01/15 02:21:51;;;;;;;;;;;27.70;99.90;;;;;;5093538;28;20359;-70
2023/01/15 02:24:52;;;;;;;;;;;27.60;99.90;;;;;;5093487;28;19991;-65
2023/01/15 02:27:20;;;;;;;;;;;27.50;99.90;;;;;;5070674;28;19908;-68
2023/01/15 02:29:50;;;;;;;;;;;27.50;99.90;;;;;;5088464;28;19987;-69
2023/01/15 02:32:26;;;;;;;;;;;27.50;99.90;;;;;;5093391;28;20277;-72
2023/01/15 02:34:54;;;;;;;;;;;27.50;99.90;;;;;;5093326;28;19956;-65
2023/01/15 02:37:25;;;;;;;;;;;27.70;99.90;;;;;;5093389;28;20270;-67
2023/01/15 02:39:52;;;;;;;;;;;27.60;99.90;;;;;;5092867;28;19951;-65
2023/01/15 02:42:20;;;;;;;;;;;27.60;99.90;;;;;;5093433;28;19915;-65
2023/01/15 02:44:50;;;;;;;;;;;27.70;99.90;;;;;;5093344;28;19978;-64
2023/01/15 02:47:19;;;;;;;;;;;27.60;99.90;;;;;;5092902;28;19908;-65
2023/01/15 02:49:46;;;;;;;;;;;27.50;99.90;;;;;;5092846;28;19908;-65
2023/01/15 02:52:14;;;;;;;;;;;27.30;99.90;;;;;;5093055;28;20282;-65
2023/01/15 02:54:45;;;;;;;;;;;27.50;99.90;;;;;;5092876;28;19934;-65
2023/01/15 02:57:13;;;;;;;;;;;27.50;99.90;;;;;;5093267;28;19921;-68
2023/01/15 02:59:42;;;;;;;;;;;27.50;99.90;;;;;;5092543;28;19924;-65
2023/01/15 03:02:15;;;;;;;;;;;27.40;99.90;;;;;;5093042;28;19998;-66
2023/01/15 03:04:51;;;;;;;;;;;27.40;99.90;;;;;;5093169;28;19912;-66
2023/01/15 03:07:24;;;;;;;;;;;27.50;99.90;;;;;;5092772;28;20018;-65
2023/01/15 03:09:51;;;;;;;;;;;27.50;99.90;;;;;;5092548;28;19916;-65
2023/01/15 03:12:17;;;;;;;;;;;27.50;99.90;;;;;;5092838;28;20297;-68
2023/01/15 03:14:49;;;;;;;;;;;27.50;99.90;;;;;;5092894;28;19908;-74
2023/01/15 03:17:22;;;;;;;;;;;27.30;99.90;;;;;;5092574;28;19909;-72
2023/01/15 03:20:02;;;;;;;;;;;27.20;99.90;;;;;;5092433;28;19916;-69
2023/01/15 03:22:31;;;;;;;;;;;27.20;99.90;;;;;;5092758;28;19927;-66
2023/01/15 03:25:06;;;;;;;;;;;27.10;99.90;;;;;;5092734;28;19924;-66
2023/01/15 03:27:33;;;;;;;;;;;27.10;99.90;;;;;;5092575;28;19912;-65
2023/01/15 03:30:13;;;;;;;;;;;27.20;99.90;;;;;;5092410;28;19908;-64
2023/01/15 03:32:40;;;;;;;;;;;27.30;99.90;;;;;;5092671;28;19908;-66
2023/01/15 03:35:09;;;;;;;;;;;27.30;99.90;;;;;;5092688;28;20379;-70
2023/01/15 03:37:36;;;;;;;;;;;27.30;99.90;;;;;;5092505;28;19908;-75
2023/01/15 03:40:03;;;;;;;;;;;27.50;99.90;;;;;;5092146;28;19978;-67
2023/01/15 03:42:33;;;;;;;;;;;27.60;99.90;;;;;;5092598;28;19908;-70
2023/01/15 03:45:17;;;;;;;;;;;27.50;99.90;;;;;;5092766;28;19908;-67
2023/01/15 03:47:56;;;;;;;;;;;27.30;99.90;;;;;;5092589;28;19909;-69
2023/01/15 03:50:39;;;;;;;;;;;27.30;99.90;;;;;;5092550;28;19921;-76
2023/01/15 03:53:19;;;;;;;;;;;27.30;99.90;;;;;;5092397;28;20359;-68
2023/01/15 03:56:01;;;;;;;;;;;27.30;99.90;;;;;;5092627;28;20501;-70
2023/01/15 03:58:46;;;;;;;;;;;27.20;99.90;;;;;;5091911;28;20281;-72
2023/01/15 04:01:15;;;;;;;;;;;27.20;99.90;;;;;;5092432;28;19908;-80
2023/01/15 04:03:43;;;;;;;;;;;27.20;99.90;;;;;;5092326;28;19909;-65
2023/01/15 04:06:10;;;;;;;;;;;27.20;99.90;;;;;;5093589;28;20327;-66
2023/01/15 04:08:41;;;;;;;;;;;27.30;99.90;;;;;;5095892;28;19973;-70
2023/01/15 04:11:08;;;;;;;;;;;27.30;99.90;;;;;;5096230;28;19908;-68
2023/01/15 04:13:35;;;;;;;;;;;27.30;99.90;;;;;;5095828;28;19912;-67
2023/01/15 04:16:02;;;;;;;;;;;27.10;99.90;;;;;;5095996;28;19957;-72
2023/01/15 04:18:28;;;;;;;;;;;27.10;99.90;;;;;;5095430;28;19964;-74
2023/01/15 04:20:55;;;;;;;;;;;27.10;99.90;;;;;;5095999;28;19954;-65
2023/01/15 04:23:22;;;;;;;;;;;27.10;99.90;;;;;;5095835;28;19958;-70
2023/01/15 04:25:49;;;;;;;;;;;27.20;99.90;;;;;;5096083;28;19908;-66
2023/01/15 04:28:16;;;;;;;;;;;27.20;99.90;;;;;;5095592;28;20012;-78
2023/01/15 04:30:43;;;;;;;;;;;27.10;99.90;;;;;;5095903;28;19915;-74
2023/01/15 04:33:09;;;;;;;;;;;27.00;99.90;;;;;;5095554;28;19908;-67
2023/01/15 04:35:37;;;;;;;;;;;27.10;99.90;;;;;;5095563;28;19916;-66
2023/01/15 04:38:03;;;;;;;;;;;27.10;99.90;;;;;;5095424;28;19916;-68
2023/01/15 04:45:59;;;;;;;;;;;27.30;99.90;;;;;;5095826;28;19992;-66
2023/01/15 04:48:26;;;;;;;;;;;27.30;99.90;;;;;;5095182;28;19909;-69
2023/01/15 04:50:53;;;;;;;;;;;27.30;99.90;;;;;;5095756;28;19908;-66
2023/01/15 04:53:20;;;;;;;;;;;27.10;99.90;;;;;;5095178;28;19944;-66
2023/01/15 04:55:46;;;;;;;;;;;27.00;99.90;;;;;;5095695;28;19908;-68
2023/01/15 04:58:13;;;;;;;;;;;26.90;99.90;;;;;;5094839;28;19927;-68
2023/01/15 05:00:40;;;;;;;;;;;26.90;99.90;;;;;;5094812;28;19952;-66
2023/01/15 05:03:07;;;;;;;;;;;26.80;99.90;;;;;;5095418;28;20091;-71
2023/01/15 05:05:33;;;;;;;;;;;26.80;99.90;;;;;;5094957;28;20002;-66
2023/01/15 05:08:00;;;;;;;;;;;26.90;99.90;;;;;;5094825;28;19916;-73
2023/01/15 05:10:26;;;;;;;;;;;27.00;99.90;;;;;;5095276;28;20366;-71
2023/01/15 05:12:53;;;;;;;;;;;27.00;99.90;;;;;;5095066;28;19912;-66
2023/01/15 05:15:20;;;;;;;;;;;27.00;99.90;;;;;;5093632;28;19972;-67
2023/01/15 05:17:46;;;;;;;;;;;26.90;99.90;;;;;;5094586;28;19938;-68
2023/01/15 05:20:14;;;;;;;;;;;26.80;99.90;;;;;;5094970;28;19920;-70
2023/01/15 05:22:41;;;;;;;;;;;26.70;99.90;;;;;;5095452;28;19934;-85
2023/01/15 05:25:07;;;;;;;;;;;26.70;99.90;;;;;;5095427;28;19953;-79
2023/01/15 05:27:34;;;;;;;;;;;26.60;99.90;;;;;;5094856;28;19909;-66
2023/01/15 05:30:01;;;;;;;;;;;26.70;99.90;;;;;;5093132;28;20243;-68
2023/01/15 05:32:29;;;;;;;;;;;26.70;99.90;;;;;;5094819;28;19916;-65
2023/01/15 05:34:55;;;;;;;;;;;26.60;99.90;;;;;;5094729;28;19908;-66
2023/01/15 05:37:22;;;;;;;;;;;26.60;99.90;;;;;;5094403;28;19915;-65
2023/01/15 05:39:49;;;;;;;;;;;26.50;99.90;;;;;;5094280;28;19923;-69
2023/01/15 05:42:15;;;;;;;;;;;26.50;99.90;;;;;;5094550;28;20255;-66
2023/01/15 05:44:42;;;;;;;;;;;26.40;99.90;;;;;;5094620;28;19912;-69
2023/01/15 05:47:10;;;;;;;;;;;26.40;99.90;;;;;;5094455;28;19914;-68
2023/01/15 05:49:37;;;;;;;;;;;26.20;99.90;;;;;;5093740;28;19908;-66
2023/01/15 05:52:03;;;;;;;;;;;26.20;99.90;;;;;;5094554;28;19912;-72
2023/01/15 05:54:31;;;;;;;;;;;26.20;99.90;;;;;;5094418;28;19908;-66
2023/01/15 05:57:00;;;;;;;;;;;26.20;99.90;;;;;;5093756;28;19908;-72
2023/01/15 05:59:27;;;;;;;;;;;26.20;99.90;;;;;;5083667;28;19924;-67
2023/01/15 06:01:54;;;;;;;;;;;26.20;99.90;;;;;;5085855;28;20471;-70
2023/01/15 06:04:21;;;;;;;;;;;26.10;99.90;;;;;;5085276;28;19912;-68
2023/01/15 06:06:49;;;;;;;;;;;26.10;99.90;;;;;;5085757;28;19916;-71
2023/01/15 06:09:16;;;;;;;;;;;26.20;99.90;;;;;;5085165;28;19925;-73
2023/01/15 06:11:42;;;;;;;;;;;26.30;99.90;;;;;;5084965;28;19912;-69
2023/01/15 06:14:10;;;;;;;;;;;26.30;99.90;;;;;;5085559;28;20018;-67
2023/01/15 06:16:36;;;;;;;;;;;26.20;99.90;;;;;;5084893;28;19923;-76
2023/01/15 06:19:04;;;;;;;;;;;26.20;99.90;;;;;;5085015;28;19926;-80
2023/01/15 06:21:32;;;;;;;;;;;26.20;99.90;;;;;;5085455;28;20599;-74
2023/01/15 06:23:59;;;;;;;;;;;26.10;99.90;;;;;;5085309;28;19912;-77
2023/01/15 06:26:26;;;;;;;;;;;26.10;99.90;;;;;;5085003;28;20125;-68
2023/01/15 06:28:52;;;;;;;;;;;26.10;99.90;;;;;;5084511;28;19920;-80
2023/01/15 06:31:20;;;;;;;;;;;26.00;99.90;;;;;;5084627;28;19916;-66
2023/01/15 06:33:47;;;;;;;;;;;26.00;99.90;;;;;;5085686;28;19912;-74
2023/01/15 06:36:15;;;;;;;;;;;26.00;99.90;;;;;;5085670;28;20041;-87
2023/01/15 06:38:42;;;;;;;;;;;25.90;99.90;;;;;;5091862;28;19927;-82
2023/01/15 06:49:28;;;;;;;;;;;25.70;99.90;;;;;;5090018;28;20309;-79
2023/01/15 06:51:54;;;;;;;;;;;25.70;99.90;;;;;;5089469;28;19970;-66
2023/01/15 06:54:21;;;;;;;;;;;25.70;99.90;;;;;;5089279;28;19930;-78
2023/01/15 06:56:48;;;;;;;;;;;25.70;99.90;;;;;;5089338;28;20425;-67
2023/01/15 06:59:14;;;;;;;;;;;25.70;99.90;;;;;;5088421;28;20536;-72
2023/01/15 07:01:41;;;;;;;;;;;25.70;99.90;;;;;;5089084;28;20464;-66
2023/01/15 07:04:08;;;;;;;;;;;25.70;99.90;;;;;;5089774;28;19954;-70
2023/01/15 07:06:34;;;;;;;;;;;25.70;99.90;;;;;;5090945;28;20296;-73
2023/01/15 07:09:01;;;;;;;;;;;25.70;99.90;;;;;;5090593;28;19915;-69
2023/01/15 07:11:28;;;;;;;;;;;25.60;99.90;;;;;;5090843;28;19908;-81
2023/01/15 07:14:04;;;;;;;;;;;25.70;99.90;;;;;;5123697;28;19920;-70
2023/01/15 07:16:32;;;;;;;;;;;25.50;99.90;;;;;;5090429;28;19908;-78
2023/01/15 07:18:59;;;;;;;;;;;25.50;99.90;;;;;;5090559;28;20286;-76
2023/01/15 07:21:26;;;;;;;;;;;25.60;99.90;;;;;;5090734;28;19946;-80
2023/01/15 07:23:53;;;;;;;;;;;25.50;99.90;;;;;;5091053;28;19920;-87
2023/01/15 07:26:20;;;;;;;;;;;25.50;99.90;;;;;;5091587;28;19912;-66
2023/01/15 07:28:47;;;;;;;;;;;25.40;99.90;;;;;;5090534;28;20003;-67
2023/01/15 07:31:13;;;;;;;;;;;25.40;99.90;;;;;;5091299;28;20610;-70
2023/01/15 07:33:40;;;;;;;;;;;25.30;99.90;;;;;;5091853;28;19912;-86
2023/01/15 07:36:07;;;;;;;;;;;25.30;99.90;;;;;;5091623;28;19908;-80
2023/01/15 07:38:33;;;;;;;;;;;25.20;99.90;;;;;;5090921;28;20297;-79
2023/01/15 07:51:59;;;;;;;;;;;24.90;99.90;;;;;;5088300;28;19950;-75
2023/01/15 07:54:26;;;;;;;;;;;24.80;99.90;;;;;;5087805;28;19916;-79
2023/01/15 07:56:53;;;;;;;;;;;24.80;99.90;;;;;;5087824;28;19919;-81
2023/01/15 07:59:20;;;;;;;;;;;24.80;99.90;;;;;;5087378;28;19928;-83
2023/01/15 08:01:46;;;;;;;;;;;24.70;99.90;;;;;;5087732;28;19965;-83
2023/01/15 08:04:13;;;;;;;;;;;24.60;99.90;;;;;;5087909;28;20003;-78
2023/01/15 08:06:39;;;;;;;;;;;24.60;99.90;;;;;;5087946;28;19912;-81
2023/01/15 08:09:06;;;;;;;;;;;24.50;99.90;;;;;;5087132;28;19971;-83
2023/01/15 08:17:03;;;;;;;;;;;24.50;99.90;;;;;;5088044;28;19972;-80
2023/01/15 08:19:29;;;;;;;;;;;24.50;99.90;;;;;;5090973;28;19975;-92
2023/01/15 08:21:56;;;;;;;;;;;24.50;99.90;;;;;;5095737;28;20481;-83
2023/01/15 08:24:24;;;;;;;;;;;24.40;99.90;;;;;;5092981;28;20367;-87
2023/01/15 08:26:51;;;;;;;;;;;24.30;99.90;;;;;;5094584;28;19964;-82
2023/01/15 08:29:19;;;;;;;;;;;24.30;99.90;;;;;;5094695;28;20632;-89
2023/01/15 08:31:46;;;;;;;;;;;24.20;99.90;;;;;;5100837;28;20016;-90
2023/01/15 08:34:12;;;;;;;;;;;24.10;99.90;;;;;;5102188;28;19964;-89
2023/01/15 08:36:39;;;;;;;;;;;24.10;99.90;;;;;;5094755;28;20007;-82
2023/01/15 08:39:05;;;;;;;;;;;24.10;99.90;;;;;;5091193;28;19923;-87
2023/01/15 08:41:32;;;;;;;;;;;24.10;99.90;;;;;;5091068;28;19916;-78
2023/01/15 08:43:59;;;;;;;;;;;24.10;99.90;;;;;;5091122;28;19924;-87
2023/01/15 08:46:26;;;;;;;;;;;24.10;99.90;;;;;;5090592;28;19919;-77
2023/01/15 08:48:53;;;;;;;;;;;24.00;99.90;;;;;;5093027;28;20324;-86
2023/01/15 08:51:20;;;;;;;;;;;24.00;99.90;;;;;;5092842;28;19919;-90
2023/01/15 08:53:47;;;;;;;;;;;24.00;99.90;;;;;;5074732;28;19919;-81
2023/01/15 08:56:15;;;;;;;;;;;24.00;99.90;;;;;;5067907;28;20667;-79
2023/01/15 08:58:41;;;;;;;;;;;24.00;99.90;;;;;;5068222;28;20371;-87
2023/01/15 09:01:10;;;;;;;;;;;24.00;99.90;;;;;;5076469;28;19995;-89
2023/01/15 09:03:37;;;;;;;;;;;24.10;99.90;;;;;;5076116;28;19908;-89
2023/01/15 09:06:04;;;;;;;;;;;24.00;99.90;;;;;;5076589;28;20351;-88
2023/01/15 09:08:31;;;;;;;;;;;24.00;99.90;;;;;;5076027;28;20323;-83
2023/01/15 09:10:58;;;;;;;;;;;24.00;99.90;;;;;;5076314;28;20362;-84
2023/01/15 09:13:25;;;;;;;;;;;24.00;99.90;;;;;;5075819;28;19915;-86
2023/01/15 09:15:52;;;;;;;;;;;23.90;99.90;;;;;;5076336;28;19919;-84
2023/01/15 09:18:19;;;;;;;;;;;23.90;99.90;;;;;;5075800;28;20321;-87
2023/01/15 09:20:46;;;;;;;;;;;23.90;99.90;;;;;;5076031;28;19909;-90
2023/01/15 09:23:14;;;;;;;;;;;23.90;99.90;;;;;;5072296;28;20054;-86
2023/01/15 09:25:41;;;;;;;;;;;23.90;99.90;;;;;;5067107;28;20054;-79
2023/01/15 09:28:07;;;;;;;;;;;24.00;99.90;;;;;;5065978;28;20339;-84
2023/01/15 09:30:34;;;;;;;;;;;24.00;99.90;;;;;;5066471;28;20472;-84
2023/01/15 09:33:01;;;;;;;;;;;24.00;99.90;;;;;;5066317;28;19952;-84
2023/01/15 09:35:27;;;;;;;;;;;24.00;99.90;;;;;;5066019;28;19951;-85
2023/01/15 09:37:54;;;;;;;;;;;23.90;99.90;;;;;;5065886;28;19947;-86
2023/01/15 09:40:36;;;;;;;;;;;23.90;99.90;;;;;;5102709;28;20562;-85
2023/01/15 09:43:14;;;;;;;;;;;23.90;99.90;;;;;;5066148;28;19913;-84
2023/01/15 09:46:01;;;;;;;;;;;24.00;99.90;;;;;;5068426;28;20379;-89
2023/01/15 09:48:49;;;;;;;;;;;23.90;99.90;;;;;;5071866;28;20002;-83
2023/01/15 09:51:18;;;;;;;;;;;24.00;99.90;;;;;;5068587;28;19912;-89
2023/01/15 09:53:53;;;;;;;;;;;24.00;99.90;;;;;;5089770;28;19909;-93
2023/01/15 09:56:21;;;;;;;;;;;23.90;99.90;;;;;;5090539;28;20028;-78
2023/01/15 09:58:48;;;;;;;;;;;23.90;99.90;;;;;;5089725;28;19935;-88
2023/01/15 10:01:19;;;;;;;;;;;23.90;99.90;;;;;;5088405;28;20510;-87
2023/01/15 10:04:08;;;;;;;;;;;23.90;99.90;;;;;;5088397;28;20081;-82
2023/01/15 10:06:41;;;;;;;;;;;23.80;99.90;;;;;;5083939;28;19912;-85
2023/01/15 10:09:16;;;;;;;;;;;23.70;99.90;;;;;;5086983;28;19962;-83
2023/01/15 10:14:38;;;;;;;;;;;23.70;99.90;;;;;;5086196;28;19934;-82
2023/01/15 10:17:17;;;;;;;;;;;23.70;99.90;;;;;;5085599;28;19918;-84
2023/01/15 10:19:44;;;;;;;;;;;23.70;99.90;;;;;;5086475;28;19943;-84
2023/01/15 10:22:27;;;;;;;;;;;23.70;99.90;;;;;;5087287;28;19946;-85
2023/01/15 10:24:56;;;;;;;;;;;23.70;99.90;;;;;;5087859;28;20358;-87
2023/01/15 10:27:24;;;;;;;;;;;23.70;99.90;;;;;;5088648;28;20017;-87
2023/01/15 10:30:07;;;;;;;;;;;23.90;99.90;;;;;;5090728;28;19958;-90
2023/01/15 10:32:52;;;;;;;;;;;23.90;99.90;;;;;;5086980;28;19912;-83
2023/01/15 10:35:34;;;;;;;;;;;23.90;99.90;;;;;;5085356;28;19912;-82
2023/01/15 10:38:01;;;;;;;;;;;23.90;99.90;;;;;;5086035;28;20698;-83
2023/01/15 10:40:33;;;;;;;;;;;23.90;99.90;;;;;;5085502;28;19920;-82
2023/01/15 10:43:06;;;;;;;;;;;23.90;99.90;;;;;;5084567;28;19915;-82
2023/01/15 10:45:37;;;;;;;;;;;23.90;99.90;;;;;;5084644;28;19912;-76
2023/01/15 10:48:18;;;;;;;;;;;23.90;99.90;;;;;;5084845;28;19912;-86
2023/01/15 10:50:45;;;;;;;;;;;23.80;99.90;;;;;;5084907;28;19919;-84
2023/01/15 10:53:27;;;;;;;;;;;23.80;99.90;;;;;;5118326;27;19923;-82
2023/01/15 10:55:56;;;;;;;;;;;23.80;99.90;;;;;;5088658;28;19912;-86
2023/01/15 10:58:26;;;;;;;;;;;23.70;99.90;;;;;;5086512;28;19924;-78
2023/01/15 11:01:04;;;;;;;;;;;23.70;99.90;;;;;;5085229;28;20275;-85
2023/01/15 11:03:38;;;;;;;;;;;23.70;99.90;;;;;;5085170;28;20364;-80
2023/01/15 11:06:07;;;;;;;;;;;23.70;99.90;;;;;;5094819;28;19919;-85
2023/01/15 11:08:34;;;;;;;;;;;23.70;99.90;;;;;;5096613;28;20109;-81
2023/01/15 11:11:13;;;;;;;;;;;23.70;99.90;;;;;;5086049;28;19935;-72
2023/01/15 11:19:38;;;;;;;;;;;23.70;99.90;;;;;;5078077;28;19927;-77
2023/01/15 11:22:09;;;;;;;;;;;23.70;99.90;;;;;;5077434;28;19944;-86
2023/01/15 11:24:37;;;;;;;;;;;23.60;99.90;;;;;;5077134;28;19909;-81
2023/01/15 11:27:05;;;;;;;;;;;23.60;99.90;;;;;;5077138;28;19955;-68
2023/01/15 11:29:35;;;;;;;;;;;23.60;99.90;;;;;;5076873;28;19908;-67
2023/01/15 11:32:02;;;;;;;;;;;23.60;99.90;;;;;;5077244;28;19919;-71
2023/01/15 11:34:28;;;;;;;;;;;23.50;99.90;;;;;;5077050;28;20294;-65
2023/01/15 11:37:02;;;;;;;;;;;23.50;99.90;;;;;;5077454;28;19909;-70
2023/01/15 11:39:30;;;;;;;;;;;23.50;99.90;;;;;;5076699;28;19967;-65
2023/01/15 11:50:44;;;;;;;;;;;23.50;99.90;;;;;;5077453;28;19971;-65
2023/01/15 11:53:17;;;;;;;;;;;23.50;99.90;;;;;;5088673;28;20294;-65
2023/01/15 11:55:51;;;;;;;;;;;23.40;99.90;;;;;;5097079;28;19909;-70
2023/01/15 11:58:18;;;;;;;;;;;23.40;99.90;;;;;;5096501;28;19923;-68
2023/01/15 12:00:49;;;;;;;;;;;23.40;99.90;;;;;;5096785;28;20028;-73
2023/01/15 12:03:21;;;;;;;;;;;23.40;99.90;;;;;;5096984;28;19908;-65
2023/01/15 12:06:05;;;;;;;;;;;23.40;99.90;;;;;;5097623;28;20315;-66
2023/01/15 12:08:49;;;;;;;;;;;23.40;99.90;;;;;;5096764;28;19912;-76
2023/01/15 12:11:15;;;;;;;;;;;23.40;99.90;;;;;;5096916;28;20373;-65
2023/01/15 12:13:46;;;;;;;;;;;23.30;99.90;;;;;;5096948;28;19912;-70
2023/01/15 12:16:22;;;;;;;;;;;23.40;99.90;;;;;;5096643;28;20003;-69
2023/01/15 12:18:58;;;;;;;;;;;23.30;99.90;;;;;;5096424;28;19918;-67
2023/01/15 12:21:54;;;;;;;;;;;23.30;99.90;;;;;;5096560;28;19908;-65
2023/01/15 12:24:39;;;;;;;;;;;23.30;99.90;;;;;;5092190;28;19908;-67
2023/01/15 12:27:12;;;;;;;;;;;23.30;99.90;;;;;;5095571;28;20290;-65
2023/01/15 12:29:50;;;;;;;;;;;23.30;99.90;;;;;;5096376;28;19916;-65
2023/01/15 12:32:19;;;;;;;;;;;23.30;99.90;;;;;;5096538;28;19915;-69
2023/01/15 12:35:03;;;;;;;;;;;23.30;99.90;;;;;;5096438;28;19930;-69
2023/01/15 12:37:43;;;;;;;;;;;23.30;99.90;;;;;;5095806;28;20006;-77
2023/01/15 12:40:25;;;;;;;;;;;23.20;99.90;;;;;;5096550;28;20351;-65
2023/01/15 12:45:41;;;;;;;;;;;23.30;99.90;;;;;;5096859;28;19962;-67
2023/01/15 12:48:25;;;;;;;;;;;23.30;99.90;;;;;;5096036;28;19930;-70
2023/01/15 12:50:54;;;;;;;;;;;23.30;99.90;;;;;;5096742;28;19912;-68
2023/01/15 12:53:23;;;;;;;;;;;23.30;99.90;;;;;;5095887;28;19939;-68
2023/01/15 12:55:50;;;;;;;;;;;23.20;99.90;;;;;;5096221;28;19961;-70
2023/01/15 12:58:29;;;;;;;;;;;23.20;99.90;;;;;;5095543;28;20390;-75
2023/01/15 13:01:24;;;;;;;;;;;23.20;99.90;;;;;;5095671;28;19916;-65
2023/01/15 13:04:07;;;;;;;;;;;23.20;99.90;;;;;;5090898;28;19908;-65
2023/01/15 13:06:34;;;;;;;;;;;23.30;99.90;;;;;;5096384;28;19908;-77
2023/01/15 13:09:04;;;;;;;;;;;23.20;99.90;;;;;;5095572;28;19908;-65
2023/01/15 13:11:31;;;;;;;;;;;23.20;99.90;;;;;;5095527;28;19915;-65
2023/01/15 13:13:58;;;;;;;;;;;23.20;99.90;;;;;;5095643;28;19999;-68
2023/01/15 13:16:33;;;;;;;;;;;23.20;99.90;;;;;;5095341;28;20320;-68
2023/01/15 13:19:18;;;;;;;;;;;23.20;99.90;;;;;;5095005;28;20386;-65
2023/01/15 13:21:51;;;;;;;;;;;23.20;99.90;;;;;;5095448;28;20283;-65
2023/01/15 13:24:18;;;;;;;;;;;23.20;99.90;;;;;;5095389;28;19912;-64
2023/01/15 13:26:45;;;;;;;;;;;23.20;99.90;;;;;;5095508;28;20012;-68
2023/01/15 13:29:19;;;;;;;;;;;23.10;99.90;;;;;;5094772;28;20389;-65
2023/01/15 13:31:54;;;;;;;;;;;23.20;99.90;;;;;;5095765;28;20304;-67
2023/01/15 13:34:36;;;;;;;;;;;23.10;99.90;;;;;;5095145;28;19908;-65
2023/01/15 13:37:18;;;;;;;;;;;23.20;99.90;;;;;;5095020;28;19912;-68
2023/01/15 13:39:45;;;;;;;;;;;23.20;99.90;;;;;;5093943;28;19923;-65
2023/01/15 13:42:31;;;;;;;;;;;23.10;99.90;;;;;;5095024;28;20013;-65
2023/01/15 13:45:02;;;;;;;;;;;23.10;99.90;;;;;;5095159;28;20255;-65
2023/01/15 13:47:31;;;;;;;;;;;23.10;99.90;;;;;;5094782;28;19916;-64
2023/01/15 13:49:59;;;;;;;;;;;23.10;99.90;;;;;;5094849;28;20350;-66
2023/01/15 13:52:27;;;;;;;;;;;23.10;99.90;;;;;;5094932;28;19910;-66
2023/01/15 13:54:57;;;;;;;;;;;23.10;99.90;;;;;;5094834;28;20270;-66
2023/01/15 13:57:25;;;;;;;;;;;23.10;99.90;;;;;;5094643;28;20266;-65
2023/01/15 13:59:52;;;;;;;;;;;23.10;99.90;;;;;;5094377;28;19924;-65
2023/01/15 14:02:21;;;;;;;;;;;23.10;99.90;;;;;;5095003;28;19943;-65
2023/01/15 14:04:48;;;;;;;;;;;23.10;99.90;;;;;;5094731;28;19919;-70
2023/01/15 14:07:30;;;;;;;;;;;23.10;99.90;;;;;;5094339;28;19914;-66
2023/01/15 14:10:07;;;;;;;;;;;23.10;99.90;;;;;;5094464;28;20311;-66
2023/01/15 14:12:49;;;;;;;;;;;23.10;99.90;;;;;;5094449;28;19916;-66
2023/01/15 14:15:25;;;;;;;;;;;23.00;99.90;;;;;;5093936;28;19915;-66
2023/01/15 14:18:03;;;;;;;;;;;23.10;99.90;;;;;;5094079;28;20001;-65
2023/01/15 14:20:38;;;;;;;;;;;23.00;99.90;;;;;;5094503;28;19998;-71
2023/01/15 14:23:04;;;;;;;;;;;23.00;99.90;;;;;;5094342;28;20365;-66
2023/01/15 14:25:31;;;;;;;;;;;23.00;99.90;;;;;;5093988;28;19908;-65
2023/01/15 14:28:01;;;;;;;;;;;23.00;99.90;;;;;;5093682;28;19909;-65
2023/01/15 14:30:31;;;;;;;;;;;23.00;99.90;;;;;;5093923;28;20270;-68
2023/01/15 14:33:20;;;;;;;;;;;23.00;99.90;;;;;;5093991;28;19969;-65
2023/01/15 14:35:47;;;;;;;;;;;23.00;99.90;;;;;;5094186;28;19908;-66
2023/01/15 14:38:18;;;;;;;;;;;23.00;99.90;;;;;;5093782;28;20374;-70
2023/01/15 14:40:51;;;;;;;;;;;23.00;99.90;;;;;;5093871;28;19916;-66
2023/01/15 14:43:20;;;;;;;;;;;23.10;99.90;;;;;;5093857;28;19991;-65
2023/01/15 14:45:48;;;;;;;;;;;23.00;99.90;;;;;;5094452;28;19912;-66
2023/01/15 14:48:27;;;;;;;;;;;23.10;99.90;;;;;;5093497;28;19908;-67
2023/01/15 14:51:06;;;;;;;;;;;23.10;99.90;;;;;;5093539;28;20312;-67
2023/01/15 14:53:52;;;;;;;;;;;23.20;99.90;;;;;;5093468;28;19923;-65
2023/01/15 14:56:31;;;;;;;;;;;23.10;99.90;;;;;;5093787;28;19953;-66
2023/01/15 14:58:58;;;;;;;;;;;23.20;99.90;;;;;;5092808;28;19924;-65
2023/01/15 15:01:36;;;;;;;;;;;23.20;99.90;;;;;;5092940;28;20197;-86
2023/01/15 15:04:22;;;;;;;;;;;23.10;99.90;;;;;;5093789;28;20363;-64
2023/01/15 15:06:56;;;;;;;;;;;23.20;99.90;;;;;;5093269;28;19912;-67
2023/01/15 15:09:38;;;;;;;;;;;23.20;99.90;;;;;;5093603;28;20259;-65
2023/01/15 15:12:19;;;;;;;;;;;23.10;99.90;;;;;;5093682;28;20286;-64
2023/01/15 15:15:06;;;;;;;;;;;23.10;99.90;;;;;;5093651;28;19989;-66
2023/01/15 15:17:50;;;;;;;;;;;23.10;99.90;;;;;;5092890;28;20005;-65
2023/01/15 15:20:17;;;;;;;;;;;23.00;99.90;;;;;;5093420;28;20473;-68
2023/01/15 15:22:45;;;;;;;;;;;23.00;99.90;;;;;;5093502;28;19999;-76
2023/01/15 15:25:18;;;;;;;;;;;23.00;99.90;;;;;;5093814;28;19951;-65
2023/01/15 15:27:45;;;;;;;;;;;23.00;99.90;;;;;;5093438;28;20010;-65